首页
METAR-TAF:

METAR-TAF

机场 :

内塔吉·苏巴斯·钱德拉·鲍斯国际机场

加尔各答, 印度

纬度: 22-39N, 经度: 088-27E, 海拔: 4米

当前天气观测

该预报发布于35分钟前的07:30 UTC
风速13节,风向南转南东
温度 33°C
湿度 71%
气压 1004 hPa
能見度: 3200
散云层高于1800英尺
少量云层高于2500英尺, 积雨云.
散云层高于10000英尺

METAR: VECC 220730Z 16013KT 3200 HZ SCT018 FEW025CB SCT100 33/27 Q1004 TEMPO TL0930 30020G30KT 1500 TSRA

时间: 13:35 (08:05 UTC)

预报

该预报发布于3小时和5分钟前的05:00 UTC
预报有效从22日的 06点(UTC)到 23日的 12点(UTC)
风速8节,风向
能見度: 3500
散云层高于2000英尺
散云层高于10000英尺
成为
从 22日的 16点(UTC)到 22日的 18点(UTC)
能見度: 2800
成为
从 23日的 03点(UTC)到 23日的 05点(UTC)
能見度: 3500
几率 30% :
短暂存在
从 23日的 09点(UTC)到 23日的 12点(UTC)
能見度: 1500
散云层高于1500英尺
少量云层高于2500英尺, 积雨云.
多云层高于9000英尺
雷暴, 雨

TAF: VECC 220500Z 2206/2312 18008KT 3500 HZ SCT020 SCT100 BECMG 2216/2218 2800 HZ BECMG 2303/2305 3500 HZ PROB30 TEMPO 2309/2312 1500 TSRA SCT015 FEW025CB BKN090

超过4000个机场的气象观测和天气预报(METAR&TAF报告)。

可查询的气象台以黄色和红色小点在地图上表示。

将鼠标移到小点上方,可查看气象台名称。

然后点击查看天气观测和预报。

如需切换地图:点击带黑十字的绿色按钮放大地图;点击带横线的绿色按钮缩小地图;或者点击绿色箭头查看邻近地区的地图。


METAR-TAF: